createdAt,value
2018-08-07T00:00:05.366Z,964.57
2018-08-07T00:15:05.735Z,964.52
2018-08-07T00:30:04.604Z,964.55
2018-08-07T00:45:05.096Z,964.6
2018-08-07T01:00:05.080Z,964.8
2018-08-07T01:15:10.212Z,957.6
2018-08-07T01:30:05.039Z,957.68
2018-08-07T01:45:04.756Z,957.88
2018-08-07T02:00:05.825Z,958.21
2018-08-07T02:15:05.590Z,958.32
2018-08-07T02:30:05.335Z,958.38
2018-08-07T02:45:05.154Z,958.38
2018-08-07T03:00:04.955Z,958.57
2018-08-07T03:15:09.424Z,958.62
2018-08-07T03:30:04.823Z,958.51
2018-08-07T03:45:05.786Z,958.65
2018-08-07T04:00:05.019Z,958.71
2018-08-07T04:15:04.610Z,958.96
2018-08-07T04:30:04.541Z,959.18
2018-08-07T04:45:04.949Z,959.18
2018-08-07T05:00:05.132Z,959.43
2018-08-07T05:15:04.883Z,959.34
2018-08-07T05:30:04.629Z,959.23
2018-08-07T05:45:05.184Z,959.12
2018-08-07T06:00:04.517Z,959.07
2018-08-07T06:15:04.967Z,958.74
2018-08-07T06:30:05.221Z,958.65
2018-08-07T06:45:04.932Z,958.15
2018-08-07T07:00:04.820Z,965.21
2018-08-07T07:15:05.253Z,964.82
2018-08-07T07:30:05.270Z,964.29
2018-08-07T07:45:04.760Z,963.71
2018-08-07T08:00:04.725Z,962.45
2018-08-07T08:15:04.652Z,960.98
2018-08-07T08:30:05.771Z,959.92
2018-08-07T08:45:04.792Z,964.22
2018-08-07T09:00:04.755Z,962.75
2018-08-07T09:15:05.176Z,962.16
2018-08-07T09:30:04.834Z,964.78
2018-08-07T09:45:05.174Z,964.86
2018-08-07T10:00:05.110Z,958.33
2018-08-07T10:15:04.547Z,958.72
2018-08-07T10:30:09.683Z,958.27
2018-08-07T10:45:05.103Z,958.33
2018-08-07T11:00:04.822Z,958.52
2018-08-07T11:15:04.814Z,958.47
2018-08-07T11:30:05.785Z,958.13
2018-08-07T11:45:04.864Z,957.8
2018-08-07T12:00:04.689Z,958.02
2018-08-07T12:15:04.643Z,957.85
2018-08-07T12:30:04.794Z,957.77
2018-08-07T12:45:05.463Z,957.46
2018-08-07T13:00:04.979Z,957.46
2018-08-07T13:15:04.467Z,957.1
2018-08-07T13:30:05.079Z,956.88
2018-08-07T13:45:04.612Z,956.65
2018-08-07T14:00:04.606Z,956.54
2018-08-07T14:15:04.541Z,956.18
2018-08-07T14:30:09.809Z,956.1
2018-08-07T14:45:04.665Z,956.1
2018-08-07T15:00:04.651Z,956.04
2018-08-07T15:15:04.597Z,956.43
2018-08-07T15:30:05.154Z,956.32
2018-08-07T15:45:10.283Z,956.32
2018-08-07T16:00:05.269Z,956.4
2018-08-07T16:15:05.008Z,956.79
2018-08-07T16:30:05.868Z,956.93
2018-08-07T16:45:04.629Z,956.96
2018-08-07T17:00:05.329Z,956.9
2018-08-07T17:15:05.424Z,957.32
2018-08-07T17:30:05.014Z,957.16
2018-08-07T17:45:04.452Z,957.24
2018-08-07T18:00:05.279Z,957.71
2018-08-07T18:15:07.036Z,957.32
2018-08-07T18:30:11.174Z,957.41
2018-08-07T18:45:05.094Z,957.71
2018-08-07T19:00:04.716Z,957.8
2018-08-07T19:15:05.362Z,957.83
2018-08-07T19:30:04.744Z,958.16
2018-08-07T19:45:10.197Z,958.66
2018-08-07T20:00:05.498Z,958.91
2018-08-07T20:15:05.648Z,959.33
2018-08-07T20:30:05.471Z,959.78
2018-08-07T20:45:04.924Z,960.06
2018-08-07T21:00:05.026Z,960
2018-08-07T21:15:05.374Z,960.56
2018-08-07T21:30:04.880Z,961
2018-08-07T21:45:05.595Z,961.34
2018-08-07T22:00:05.146Z,961.34
2018-08-07T22:15:05.182Z,961.45
2018-08-07T22:30:04.939Z,961.39
2018-08-07T22:45:04.672Z,961.51
2018-08-07T23:00:05.933Z,961.67
2018-08-07T23:15:05.138Z,961.92
2018-08-07T23:30:04.972Z,962.06
2018-08-07T23:45:04.721Z,962.26
